createdAt,value
2018-07-12T00:02:09.539Z,17.00
2018-07-12T00:04:37.360Z,17.00
2018-07-12T00:07:04.415Z,16.90
2018-07-12T00:09:31.508Z,17.00
2018-07-12T00:11:58.572Z,17.00
2018-07-12T00:14:25.630Z,16.90
2018-07-12T00:16:52.744Z,16.90
2018-07-12T00:19:20.575Z,16.90
2018-07-12T00:21:47.627Z,16.90
2018-07-12T00:24:14.719Z,17.00
2018-07-12T00:26:42.539Z,17.10
2018-07-12T00:29:09.601Z,17.10
2018-07-12T00:31:36.696Z,17.10
2018-07-12T00:34:03.757Z,17.10
2018-07-12T00:36:30.806Z,17.20
2018-07-12T00:38:57.907Z,17.20
2018-07-12T00:41:24.964Z,17.20
2018-07-12T00:43:52.793Z,17.20
2018-07-12T00:46:20.126Z,17.20
2018-07-12T00:48:47.181Z,17.20
2018-07-12T00:51:14.245Z,17.20
2018-07-12T00:53:41.335Z,17.20
2018-07-12T00:56:08.389Z,17.20
2018-07-12T00:58:36.211Z,17.20
2018-07-12T01:01:03.309Z,17.20
2018-07-12T01:03:31.141Z,17.20
2018-07-12T01:05:58.206Z,17.20
2018-07-12T01:08:25.340Z,17.20
2018-07-12T01:10:52.401Z,17.20
2018-07-12T01:13:19.457Z,17.40
2018-07-12T01:15:46.553Z,17.40
2018-07-12T01:18:13.613Z,17.40
2018-07-12T01:20:41.500Z,17.30
2018-07-12T01:23:09.691Z,17.30
2018-07-12T01:25:36.751Z,17.30
2018-07-12T01:28:03.818Z,17.20
2018-07-12T01:30:30.909Z,17.30
2018-07-12T01:32:57.967Z,17.20
2018-07-12T01:35:25.022Z,17.20
2018-07-12T01:37:52.164Z,17.20
2018-07-12T01:40:19.940Z,17.20
2018-07-12T01:42:47.004Z,17.20
2018-07-12T01:45:14.116Z,17.20
2018-07-12T01:47:41.191Z,17.20
2018-07-12T01:50:08.248Z,17.20
2018-07-12T01:52:35.342Z,17.20
2018-07-12T01:55:03.183Z,17.20
2018-07-12T01:57:30.240Z,17.20
2018-07-12T01:59:57.338Z,17.30
2018-07-12T02:02:24.385Z,17.30
2018-07-12T02:04:51.435Z,17.30
2018-07-12T02:07:18.547Z,17.20
2018-07-12T02:09:46.369Z,17.20
2018-07-12T02:12:13.423Z,17.10
2018-07-12T02:14:40.519Z,17.10
2018-07-12T02:17:08.336Z,17.00
2018-07-12T02:19:35.394Z,17.10
2018-07-12T02:22:02.496Z,17.00
2018-07-12T02:24:29.557Z,17.00
2018-07-12T02:26:56.614Z,17.20
2018-07-12T02:29:24.148Z,17.20
2018-07-12T02:31:51.981Z,17.20
2018-07-12T02:34:19.039Z,17.20
2018-07-12T02:36:46.138Z,17.20
2018-07-12T02:39:13.198Z,17.40
2018-07-12T02:41:40.256Z,17.30
2018-07-12T02:44:07.352Z,17.30
2018-07-12T02:46:34.407Z,17.30
2018-07-12T02:49:01.469Z,17.20
2018-07-12T02:51:28.566Z,17.20
2018-07-12T02:53:55.623Z,17.20
2018-07-12T02:56:22.672Z,17.20
2018-07-12T02:58:49.764Z,17.20
2018-07-12T03:01:17.158Z,17.30
2018-07-12T03:03:44.216Z,17.50
2018-07-12T03:06:11.309Z,17.50
2018-07-12T03:08:39.136Z,17.40
2018-07-12T03:11:06.189Z,17.40
2018-07-12T03:13:33.850Z,17.30
2018-07-12T03:16:00.911Z,17.50
2018-07-12T03:18:27.973Z,17.60
2018-07-12T03:20:55.073Z,17.70
2018-07-12T03:23:22.138Z,17.80
2018-07-12T03:25:49.205Z,17.80
2018-07-12T03:28:16.308Z,17.70
2018-07-12T03:30:43.373Z,17.60
2018-07-12T03:33:10.422Z,17.50
2018-07-12T03:35:37.550Z,17.40
2018-07-12T03:38:04.610Z,17.40
2018-07-12T03:40:31.725Z,17.30
2018-07-12T03:42:58.756Z,17.30
2018-07-12T03:45:25.845Z,17.30
2018-07-12T03:47:52.868Z,17.30
2018-07-12T03:50:19.961Z,17.30
2018-07-12T03:52:47.015Z,17.30
2018-07-12T03:55:14.088Z,17.30
2018-07-12T03:57:41.185Z,17.30
2018-07-12T04:00:09.021Z,17.30
2018-07-12T04:02:36.081Z,17.20
2018-07-12T04:05:03.178Z,17.30
2018-07-12T04:07:30.551Z,17.30
2018-07-12T04:09:57.608Z,17.30
2018-07-12T04:12:24.700Z,17.30
2018-07-12T04:14:52.544Z,17.30
2018-07-12T04:17:19.593Z,17.20
2018-07-12T04:19:46.699Z,17.30
2018-07-12T04:22:13.755Z,17.30
2018-07-12T04:24:40.809Z,17.30
2018-07-12T04:27:07.940Z,17.30
2018-07-12T04:29:34.977Z,17.30
2018-07-12T04:32:02.047Z,17.30
2018-07-12T04:34:29.138Z,17.40
2018-07-12T04:36:56.201Z,17.40
2018-07-12T04:39:23.272Z,17.40
2018-07-12T04:41:51.136Z,17.60
2018-07-12T04:44:18.956Z,17.60
2018-07-12T04:46:59.388Z,17.60
2018-07-12T04:49:26.484Z,17.60
2018-07-12T04:51:53.543Z,17.70
2018-07-12T04:54:20.654Z,17.70
2018-07-12T04:56:47.720Z,17.80
2018-07-12T04:59:14.794Z,18.00
2018-07-12T05:01:42.218Z,18.00
2018-07-12T05:04:09.806Z,17.90
2018-07-12T05:06:36.849Z,17.90
2018-07-12T05:09:03.913Z,17.90
2018-07-12T05:11:31.452Z,17.90
2018-07-12T05:13:58.513Z,18.00
2018-07-12T05:16:25.572Z,18.10
2018-07-12T05:18:52.663Z,18.10
2018-07-12T05:21:19.732Z,18.20
2018-07-12T05:23:46.786Z,18.10
2018-07-12T05:26:13.902Z,18.10
2018-07-12T05:28:40.964Z,18.10
2018-07-12T05:31:08.024Z,18.10
2018-07-12T05:33:35.110Z,18.10
2018-07-12T05:36:02.708Z,18.10
2018-07-12T05:38:30.289Z,18.00
2018-07-12T05:40:57.886Z,18.20
2018-07-12T05:43:25.485Z,18.20
2018-07-12T05:45:53.822Z,18.40
2018-07-12T05:48:21.444Z,18.40
2018-07-12T05:50:49.020Z,18.40
2018-07-12T05:53:16.595Z,18.50
2018-07-12T05:55:45.038Z,18.50
2018-07-12T05:58:12.611Z,18.50
2018-07-12T06:00:40.190Z,18.50
2018-07-12T06:03:08.175Z,18.60
2018-07-12T06:05:35.746Z,18.60
2018-07-12T06:08:03.323Z,18.70
2018-07-12T06:10:30.949Z,18.70
2018-07-12T06:12:58.524Z,18.70
2018-07-12T06:15:26.101Z,18.80
2018-07-12T06:17:53.719Z,18.90
2018-07-12T06:20:21.295Z,19.00
2018-07-12T06:22:48.865Z,19.10
2018-07-12T06:25:16.489Z,19.10
2018-07-12T06:27:44.063Z,19.10
2018-07-12T06:30:11.634Z,19.10
2018-07-12T06:32:40.282Z,19.10
2018-07-12T06:35:08.622Z,19.00
2018-07-12T06:37:36.191Z,19.00
2018-07-12T06:40:03.815Z,19.00
2018-07-12T06:42:31.428Z,19.00
2018-07-12T06:44:58.961Z,19.10
2018-07-12T06:47:27.353Z,19.10
2018-07-12T06:49:54.920Z,19.10
2018-07-12T06:52:22.495Z,19.10
2018-07-12T06:54:50.472Z,19.30
2018-07-12T06:57:18.811Z,19.50
2018-07-12T06:59:46.391Z,19.50
2018-07-12T07:02:14.044Z,19.60
2018-07-12T07:04:41.613Z,19.60
2018-07-12T07:07:09.187Z,19.60
2018-07-12T07:09:36.808Z,19.80
2018-07-12T07:12:04.374Z,20.00
2018-07-12T07:14:31.953Z,20.10
2018-07-12T07:16:59.605Z,20.10
2018-07-12T07:19:27.184Z,20.10
2018-07-12T07:21:54.767Z,20.10
2018-07-12T07:24:23.229Z,20.20
2018-07-12T07:26:50.804Z,20.20
2018-07-12T07:29:18.377Z,20.30
2018-07-12T07:31:46.782Z,20.30
2018-07-12T07:34:14.359Z,20.30
2018-07-12T07:36:41.930Z,20.40
2018-07-12T07:39:09.544Z,20.60
2018-07-12T07:41:38.186Z,20.70
2018-07-12T07:44:05.761Z,20.60
2018-07-12T07:46:33.378Z,20.70
2018-07-12T07:49:00.950Z,20.70
2018-07-12T07:51:28.527Z,20.80
2018-07-12T07:53:56.163Z,20.80
2018-07-12T07:56:23.733Z,20.90
2018-07-12T07:58:51.307Z,21.00
2018-07-12T08:01:18.963Z,21.10
2018-07-12T08:03:46.551Z,21.10
2018-07-12T08:06:14.124Z,21.10
2018-07-12T08:08:41.769Z,21.20
2018-07-12T08:11:09.345Z,21.40
2018-07-12T08:13:36.967Z,21.50
2018-07-12T08:16:04.538Z,21.60
2018-07-12T08:18:32.108Z,21.60
2018-07-12T08:20:59.678Z,21.50
2018-07-12T08:23:27.384Z,21.60
2018-07-12T08:25:54.916Z,21.60
2018-07-12T08:28:22.491Z,21.80
2018-07-12T08:30:50.857Z,21.90
2018-07-12T08:33:18.461Z,21.90
2018-07-12T08:35:45.994Z,21.90
2018-07-12T08:38:14.602Z,22.00
2018-07-12T08:40:42.174Z,21.90
2018-07-12T08:43:10.083Z,21.90
2018-07-12T08:45:37.700Z,21.90
2018-07-12T08:48:05.277Z,21.90
2018-07-12T08:50:32.841Z,21.90
2018-07-12T08:53:00.472Z,22.00
2018-07-12T08:55:28.802Z,22.20
2018-07-12T08:57:56.380Z,22.10
2018-07-12T09:00:24.067Z,22.20
2018-07-12T09:02:52.484Z,22.40
2018-07-12T09:05:19.983Z,22.30
2018-07-12T09:07:47.603Z,22.40
2018-07-12T09:10:15.170Z,22.50
2018-07-12T09:12:42.854Z,22.60
2018-07-12T09:15:10.360Z,22.60
2018-07-12T09:17:38.702Z,22.50
2018-07-12T09:20:06.269Z,22.50
2018-07-12T09:22:33.887Z,22.60
2018-07-12T09:25:01.455Z,22.60
2018-07-12T09:27:29.021Z,22.70
2018-07-12T09:29:56.660Z,22.80
2018-07-12T09:32:24.235Z,22.90
2018-07-12T09:34:51.855Z,22.90
2018-07-12T09:37:19.763Z,23.00
2018-07-12T09:39:47.375Z,23.00
2018-07-12T09:42:14.905Z,23.10
2018-07-12T09:44:43.396Z,23.20
2018-07-12T09:47:11.022Z,23.30
2018-07-12T09:49:38.537Z,23.40
2018-07-12T09:52:06.148Z,23.40
2018-07-12T09:54:33.715Z,23.60
2018-07-12T09:57:38.295Z,23.70
2018-07-12T10:00:05.866Z,23.80
2018-07-12T10:02:45.462Z,23.70
2018-07-12T10:05:13.032Z,23.70
2018-07-12T10:07:40.596Z,23.70
2018-07-12T10:10:08.741Z,23.60
2018-07-12T10:12:36.309Z,23.70
2018-07-12T10:15:03.883Z,23.70
2018-07-12T10:17:31.505Z,23.80
2018-07-12T10:19:59.895Z,23.90
2018-07-12T10:22:27.415Z,23.80
2018-07-12T10:24:55.892Z,23.90
2018-07-12T10:27:23.474Z,23.90
2018-07-12T10:29:51.066Z,23.80
2018-07-12T10:32:20.315Z,24.00
2018-07-12T10:34:47.885Z,23.90
2018-07-12T10:37:15.449Z,24.00
2018-07-12T10:39:43.108Z,24.10
2018-07-12T10:42:10.674Z,24.20
2018-07-12T10:44:38.257Z,24.30
2018-07-12T10:47:05.858Z,24.30
2018-07-12T10:49:33.434Z,24.30
2018-07-12T10:52:01.009Z,24.40
2018-07-12T10:54:29.186Z,24.40
2018-07-12T10:56:56.760Z,24.50
2018-07-12T10:59:24.335Z,24.70
2018-07-12T11:01:51.951Z,24.90
2018-07-12T11:04:19.521Z,24.90
2018-07-12T11:06:47.092Z,25.10
2018-07-12T11:09:14.782Z,25.10
2018-07-12T11:11:42.310Z,25.20
2018-07-12T11:14:09.878Z,25.20
2018-07-12T11:16:37.550Z,25.20
2018-07-12T11:19:05.114Z,25.30
2018-07-12T11:21:32.677Z,25.40
2018-07-12T11:24:00.831Z,25.50
2018-07-12T11:26:28.401Z,25.70
2018-07-12T11:28:55.968Z,25.70
2018-07-12T11:31:23.604Z,25.70
2018-07-12T11:33:51.172Z,25.70
2018-07-12T11:36:18.772Z,25.70
2018-07-12T11:38:46.885Z,25.60
2018-07-12T11:41:14.455Z,25.50
2018-07-12T11:43:42.017Z,25.50
2018-07-12T11:46:09.630Z,25.50
2018-07-12T11:48:37.972Z,25.40
2018-07-12T11:51:05.538Z,25.40
2018-07-12T11:53:33.284Z,25.30
2018-07-12T11:56:00.858Z,25.20
2018-07-12T11:58:28.438Z,25.30
2018-07-12T12:00:56.050Z,25.20
2018-07-12T12:03:23.618Z,25.30
2018-07-12T12:05:51.194Z,25.30
2018-07-12T12:08:19.718Z,25.40
2018-07-12T12:10:48.361Z,25.50
2018-07-12T12:13:16.080Z,25.50
2018-07-12T12:15:44.532Z,25.70
2018-07-12T12:18:12.100Z,25.70
2018-07-12T12:20:39.693Z,25.70
2018-07-12T12:23:09.157Z,25.90
2018-07-12T12:25:36.721Z,25.90
2018-07-12T12:28:04.284Z,26.00
2018-07-12T12:30:31.900Z,25.90
2018-07-12T12:32:59.465Z,25.90
2018-07-12T12:35:27.034Z,25.90
2018-07-12T12:37:55.038Z,26.00
2018-07-12T12:40:22.600Z,26.10
2018-07-12T12:42:50.166Z,26.20
2018-07-12T12:45:17.786Z,26.30
2018-07-12T12:47:45.356Z,26.30
2018-07-12T12:50:12.950Z,26.40
2018-07-12T12:52:40.560Z,26.30
2018-07-12T12:55:08.129Z,26.20
2018-07-12T12:57:35.704Z,26.20
2018-07-12T13:00:03.723Z,26.10
2018-07-12T13:02:31.238Z,26.10
2018-07-12T13:04:58.807Z,26.10
2018-07-12T13:07:26.418Z,26.20
2018-07-12T13:09:53.982Z,26.30
2018-07-12T13:12:21.553Z,26.40
2018-07-12T13:14:49.988Z,26.30
2018-07-12T13:17:17.556Z,26.40
2018-07-12T13:19:45.170Z,26.50
2018-07-12T13:22:13.302Z,26.50
2018-07-12T13:24:40.873Z,26.70
2018-07-12T13:27:10.504Z,26.90
2018-07-12T13:29:38.141Z,26.80
2018-07-12T13:32:05.705Z,26.70
2018-07-12T13:34:33.272Z,26.70
2018-07-12T13:37:01.218Z,26.80
2018-07-12T13:39:28.793Z,26.80
2018-07-12T13:41:56.364Z,26.80
2018-07-12T13:44:24.748Z,27.00
2018-07-12T13:46:52.309Z,27.00
2018-07-12T13:49:20.631Z,27.00
2018-07-12T13:51:48.246Z,27.00
2018-07-12T13:54:16.575Z,27.10
2018-07-12T13:56:44.148Z,27.00
2018-07-12T13:59:11.758Z,27.10
2018-07-12T14:01:39.322Z,27.10
2018-07-12T14:04:06.891Z,27.10
2018-07-12T14:06:34.507Z,27.10
2018-07-12T14:09:02.077Z,27.10
2018-07-12T14:11:29.636Z,27.20
2018-07-12T14:13:57.250Z,27.30
2018-07-12T14:16:24.845Z,27.50
2018-07-12T14:18:52.409Z,27.50
2018-07-12T14:21:20.043Z,27.60
2018-07-12T14:23:47.619Z,27.70
2018-07-12T14:26:15.178Z,27.80
2018-07-12T14:28:43.290Z,27.80
2018-07-12T14:31:11.625Z,28.00
2018-07-12T14:33:39.194Z,27.90
2018-07-12T14:36:06.811Z,28.00
2018-07-12T14:38:35.140Z,28.10
2018-07-12T14:41:02.705Z,28.10
2018-07-12T14:43:30.337Z,28.10
2018-07-12T14:45:57.902Z,28.20
2018-07-12T14:48:25.465Z,28.10
2018-07-12T14:50:54.085Z,27.90
2018-07-12T14:53:21.650Z,27.70
2018-07-12T14:55:49.215Z,27.40
2018-07-12T14:58:16.829Z,27.20
2018-07-12T15:00:44.399Z,27.20
2018-07-12T15:03:11.971Z,27.10
2018-07-12T15:05:39.848Z,27.00
2018-07-12T15:08:07.423Z,26.90
2018-07-12T15:10:34.995Z,27.00
2018-07-12T15:13:03.248Z,27.20
2018-07-12T15:15:30.814Z,27.30
2018-07-12T15:17:58.381Z,27.40
2018-07-12T15:20:26.562Z,27.60
2018-07-12T15:22:54.126Z,27.80
2018-07-12T15:25:21.704Z,28.10
2018-07-12T15:27:50.564Z,28.30
2018-07-12T15:30:18.027Z,28.30
2018-07-12T15:32:45.591Z,28.50
2018-07-12T15:35:13.210Z,28.60
2018-07-12T15:37:40.787Z,28.70
2018-07-12T15:40:08.345Z,28.80
2018-07-12T15:42:36.004Z,28.90
2018-07-12T15:45:03.569Z,29.00
2018-07-12T15:47:31.162Z,29.00
2018-07-12T15:49:59.108Z,29.10
2018-07-12T15:52:26.721Z,29.20
2018-07-12T15:54:54.241Z,29.30
2018-07-12T15:57:21.852Z,29.30
2018-07-12T15:59:49.432Z,29.40
2018-07-12T16:02:17.002Z,29.70
2018-07-12T16:04:45.506Z,29.80
2018-07-12T16:07:13.075Z,29.80
2018-07-12T16:09:40.637Z,29.90
2018-07-12T16:12:09.222Z,30.10
2018-07-12T16:14:36.786Z,30.20
2018-07-12T16:17:04.347Z,30.40
2018-07-12T16:19:31.956Z,30.40
2018-07-12T16:21:59.519Z,30.30
2018-07-12T16:24:27.090Z,30.10
2018-07-12T16:26:54.739Z,29.80
2018-07-12T16:29:22.299Z,29.60
2018-07-12T16:31:49.865Z,29.50
2018-07-12T16:34:19.010Z,29.30
2018-07-12T16:36:46.570Z,29.10
2018-07-12T16:39:14.138Z,28.90
2018-07-12T16:41:41.788Z,28.70
2018-07-12T16:44:09.358Z,28.50
2018-07-12T16:46:36.928Z,28.40
2018-07-12T16:49:04.585Z,28.30
2018-07-12T16:51:32.149Z,28.30
2018-07-12T16:53:59.712Z,28.20
2018-07-12T16:56:27.325Z,28.00
2018-07-12T16:58:54.888Z,27.80
2018-07-12T17:01:22.454Z,27.90
2018-07-12T17:03:50.866Z,27.70
2018-07-12T17:06:18.428Z,27.60
2018-07-12T17:08:45.988Z,27.60
2018-07-12T17:11:13.599Z,27.60
2018-07-12T17:13:41.164Z,27.70
2018-07-12T17:16:08.728Z,27.70
2018-07-12T17:18:36.326Z,27.90
2018-07-12T17:21:03.889Z,28.00
2018-07-12T17:23:31.447Z,28.10
2018-07-12T17:25:59.098Z,28.10
2018-07-12T17:28:26.669Z,28.40
2018-07-12T17:30:54.266Z,28.40
2018-07-12T17:33:22.369Z,28.40
2018-07-12T17:35:49.884Z,28.50
2018-07-12T17:38:17.452Z,28.50
2018-07-12T17:40:45.064Z,28.60
2018-07-12T17:43:12.632Z,28.50
2018-07-12T17:45:40.202Z,28.40
2018-07-12T17:48:08.194Z,28.20
2018-07-12T17:50:35.763Z,28.10
2018-07-12T17:53:03.327Z,27.90
2018-07-12T17:55:30.971Z,27.70
2018-07-12T17:57:58.547Z,27.70
2018-07-12T18:00:26.123Z,27.70
2018-07-12T18:02:54.516Z,27.60
2018-07-12T18:05:22.963Z,27.40
2018-07-12T18:07:50.419Z,27.40
2018-07-12T18:10:18.060Z,27.20
2018-07-12T18:12:45.628Z,27.00
2018-07-12T18:15:13.191Z,27.00
2018-07-12T18:17:40.808Z,26.80
2018-07-12T18:20:09.135Z,26.60
2018-07-12T18:22:36.705Z,26.60
2018-07-12T18:25:04.326Z,26.50
2018-07-12T18:27:31.899Z,26.60
2018-07-12T18:29:59.476Z,26.50
2018-07-12T18:32:27.089Z,26.40
2018-07-12T18:34:54.655Z,26.30
2018-07-12T18:37:22.988Z,26.10
2018-07-12T18:39:51.068Z,26.10
2018-07-12T18:42:18.649Z,26.00
2018-07-12T18:44:46.211Z,25.90
2018-07-12T18:47:13.832Z,25.90
2018-07-12T18:49:41.411Z,25.70
2018-07-12T18:52:08.979Z,25.70
2018-07-12T18:54:36.625Z,25.60
2018-07-12T18:57:04.260Z,25.50
2018-07-12T18:59:31.774Z,25.60
2018-07-12T19:01:59.405Z,25.50
2018-07-12T19:04:26.976Z,25.40
2018-07-12T19:06:54.552Z,25.40
2018-07-12T19:09:22.170Z,25.30
2018-07-12T19:11:49.740Z,25.30
2018-07-12T19:14:17.326Z,25.40
2018-07-12T19:16:45.604Z,25.20
2018-07-12T19:19:13.168Z,25.10
2018-07-12T19:21:40.744Z,25.00
2018-07-12T19:24:09.132Z,24.80
2018-07-12T19:26:36.705Z,24.90
2018-07-12T19:29:05.048Z,24.60
2018-07-12T19:31:32.661Z,24.60
2018-07-12T19:34:00.233Z,24.50
2018-07-12T19:36:27.797Z,24.50
2018-07-12T19:38:55.455Z,24.40
2018-07-12T19:41:23.094Z,24.30
2018-07-12T19:43:50.595Z,24.20
2018-07-12T19:46:19.003Z,24.10
2018-07-12T19:48:46.582Z,23.90
2018-07-12T19:51:14.150Z,23.80
2018-07-12T19:53:42.533Z,23.80
2018-07-12T19:56:10.876Z,23.70
2018-07-12T19:58:38.465Z,23.70
2018-07-12T20:01:06.060Z,23.60
2018-07-12T20:03:33.677Z,23.50
2018-07-12T20:06:01.200Z,23.40
2018-07-12T20:08:28.819Z,23.40
2018-07-12T20:10:57.154Z,23.10
2018-07-12T20:13:24.735Z,23.10
2018-07-12T20:15:52.416Z,23.10
2018-07-12T20:18:19.911Z,23.00
2018-07-12T20:20:47.484Z,23.00
2018-07-12T20:23:15.100Z,22.90
2018-07-12T20:25:42.678Z,22.80
2018-07-12T20:28:11.010Z,22.60
2018-07-12T20:30:38.640Z,22.60
2018-07-12T20:33:06.213Z,22.50
2018-07-12T20:35:33.788Z,22.40
2018-07-12T20:38:01.409Z,22.20
2018-07-12T20:40:28.982Z,22.20
2018-07-12T20:42:56.558Z,22.00
2018-07-12T20:45:24.171Z,21.90
2018-07-12T20:47:51.742Z,21.80
2018-07-12T20:50:20.083Z,21.70
2018-07-12T20:52:48.267Z,21.70
2018-07-12T20:55:15.935Z,21.60
2018-07-12T20:57:43.415Z,21.70
2018-07-12T21:00:11.810Z,21.50
2018-07-12T21:02:39.384Z,21.50
2018-07-12T21:05:06.960Z,21.40
2018-07-12T21:07:34.579Z,21.40
2018-07-12T21:10:02.924Z,21.20
2018-07-12T21:12:30.502Z,21.20
2018-07-12T21:14:58.873Z,21.30
2018-07-12T21:17:26.486Z,21.40
2018-07-12T21:19:54.015Z,21.30
2018-07-12T21:22:21.631Z,21.20
2018-07-12T21:24:49.213Z,21.20
2018-07-12T21:27:16.785Z,21.10
2018-07-12T21:29:44.395Z,21.00
2018-07-12T21:32:11.963Z,20.90
2018-07-12T21:34:39.541Z,20.80
2018-07-12T21:37:07.164Z,20.80
2018-07-12T21:39:35.503Z,20.60
2018-07-12T21:42:03.460Z,20.60
2018-07-12T21:44:31.073Z,20.60
2018-07-12T21:46:59.402Z,20.50
2018-07-12T21:49:26.977Z,20.40
2018-07-12T21:51:54.970Z,20.40
2018-07-12T21:54:22.508Z,20.40
2018-07-12T21:56:50.082Z,20.50
2018-07-12T21:59:18.141Z,20.60
2018-07-12T22:01:45.710Z,20.80
2018-07-12T22:04:13.282Z,20.60
2018-07-12T22:06:40.897Z,20.50
2018-07-12T22:09:08.466Z,20.60
2018-07-12T22:11:36.047Z,20.50
2018-07-12T22:14:03.692Z,20.40
2018-07-12T22:16:31.227Z,20.30
2018-07-12T22:18:58.807Z,20.30
2018-07-12T22:21:27.009Z,20.20
2018-07-12T22:23:54.578Z,20.10
2018-07-12T22:26:22.153Z,20.00
2018-07-12T22:28:49.757Z,20.10
2018-07-12T22:31:17.330Z,20.20
2018-07-12T22:33:44.906Z,20.20
2018-07-12T22:36:12.522Z,20.10
2018-07-12T22:38:40.869Z,20.10
2018-07-12T22:41:08.439Z,20.10
2018-07-12T22:43:36.057Z,20.00
2018-07-12T22:46:03.625Z,20.00
2018-07-12T22:48:31.393Z,19.90
2018-07-12T22:50:58.802Z,19.80
2018-07-12T22:53:27.149Z,19.60
2018-07-12T22:55:54.723Z,19.60
2018-07-12T22:58:22.335Z,19.40
2018-07-12T23:00:49.903Z,19.40
2018-07-12T23:03:17.472Z,19.30
2018-07-12T23:05:45.088Z,19.20
2018-07-12T23:08:13.423Z,19.10
2018-07-12T23:10:40.997Z,19.10
2018-07-12T23:13:08.602Z,19.10
2018-07-12T23:15:36.166Z,19.00
2018-07-12T23:18:03.746Z,19.00
2018-07-12T23:20:31.355Z,18.90
2018-07-12T23:22:58.937Z,18.80
2018-07-12T23:25:27.279Z,18.80
2018-07-12T23:27:54.892Z,18.70
2018-07-12T23:30:22.466Z,18.70
2018-07-12T23:32:50.043Z,18.70
2018-07-12T23:35:17.642Z,18.60
2018-07-12T23:37:45.221Z,18.60
2018-07-12T23:40:13.563Z,18.50
2018-07-12T23:42:41.176Z,18.50
2018-07-12T23:45:08.751Z,18.50
2018-07-12T23:47:36.325Z,18.40
2018-07-12T23:50:03.954Z,18.30
2018-07-12T23:52:32.295Z,18.20
2018-07-12T23:54:59.868Z,18.20
2018-07-12T23:57:27.486Z,18.10
2018-07-12T23:59:55.066Z,18.10
